sensor_id;sensor_type;location;lat;lon;timestamp;pressure;altitude;pressure_sealevel;temperature;humidity
51261;BME280;61705;46.228;24.812;2024-01-10T00:02:22;99026.16;;;-8.89;100.00
51261;BME280;61705;46.228;24.812;2024-01-10T00:04:49;99017.69;;;-8.88;100.00
51261;BME280;61705;46.228;24.812;2024-01-10T00:07:16;99020.09;;;-8.91;100.00
51261;BME280;61705;46.228;24.812;2024-01-10T00:09:43;99030.00;;;-8.97;100.00
51261;BME280;61705;46.228;24.812;2024-01-10T00:12:09;99020.63;;;-9.13;100.00
51261;BME280;61705;46.228;24.812;2024-01-10T00:14:36;99031.53;;;-9.01;100.00
51261;BME280;61705;46.228;24.812;2024-01-10T00:17:02;99036.88;;;-8.96;100.00
51261;BME280;61705;46.228;24.812;2024-01-10T00:19:30;99035.78;;;-9.01;100.00
51261;BME280;61705;46.228;24.812;2024-01-10T00:21:56;99036.41;;;-8.89;100.00
51261;BME280;61705;46.228;24.812;2024-01-10T00:24:23;99031.03;;;-8.94;100.00
51261;BME280;61705;46.228;24.812;2024-01-10T00:26:50;99041.53;;;-8.89;100.00
51261;BME280;61705;46.228;24.812;2024-01-10T00:29:16;99036.88;;;-8.96;100.00
51261;BME280;61705;46.228;24.812;2024-01-10T00:31:43;99041.84;;;-8.99;100.00
51261;BME280;61705;46.228;24.812;2024-01-10T00:34:10;99044.97;;;-9.05;100.00
51261;BME280;61705;46.228;24.812;2024-01-10T00:36:36;99041.44;;;-9.07;100.00
51261;BME280;61705;46.228;24.812;2024-01-10T00:39:03;99047.06;;;-8.98;100.00
51261;BME280;61705;46.228;24.812;2024-01-10T00:41:30;99038.97;;;-9.05;100.00
51261;BME280;61705;46.228;24.812;2024-01-10T00:43:56;99035.44;;;-9.08;100.00
51261;BME280;61705;46.228;24.812;2024-01-10T00:46:23;99043.53;;;-9.00;100.00
51261;BME280;61705;46.228;24.812;2024-01-10T00:48:50;99035.47;;;-8.91;100.00
51261;BME280;61705;46.228;24.812;2024-01-10T00:51:16;99040.00;;;-9.02;100.00
51261;BME280;61705;46.228;24.812;2024-01-10T00:53:43;99041.13;;;-8.97;100.00
51261;BME280;61705;46.228;24.812;2024-01-10T00:56:10;99047.91;;;-9.14;100.00
51261;BME280;61705;46.228;24.812;2024-01-10T00:58:38;99041.03;;;-9.15;100.00
51261;BME280;61705;46.228;24.812;2024-01-10T01:01:04;99040.69;;;-9.21;100.00
51261;BME280;61705;46.228;24.812;2024-01-10T01:03:31;99047.31;;;-9.24;100.00
51261;BME280;61705;46.228;24.812;2024-01-10T01:05:58;99045.59;;;-9.40;100.00
51261;BME280;61705;46.228;24.812;2024-01-10T01:08:24;99039.59;;;-9.26;100.00
51261;BME280;61705;46.228;24.812;2024-01-10T01:10:51;99038.06;;;-9.22;100.00
51261;BME280;61705;46.228;24.812;2024-01-10T01:13:18;99031.50;;;-9.17;100.00
51261;BME280;61705;46.228;24.812;2024-01-10T01:15:44;99045.47;;;-9.27;100.00
51261;BME280;61705;46.228;24.812;2024-01-10T01:18:11;99033.13;;;-9.19;100.00
51261;BME280;61705;46.228;24.812;2024-01-10T01:20:39;99038.13;;;-9.21;100.00
51261;BME280;61705;46.228;24.812;2024-01-10T01:23:06;99037.91;;;-9.25;100.00
51261;BME280;61705;46.228;24.812;2024-01-10T01:25:32;99040.28;;;-9.28;100.00
51261;BME280;61705;46.228;24.812;2024-01-10T01:27:59;99033.72;;;-9.23;100.00
51261;BME280;61705;46.228;24.812;2024-01-10T01:30:26;99037.50;;;-9.17;100.00
51261;BME280;61705;46.228;24.812;2024-01-10T01:32:52;99042.03;;;-9.27;100.00
51261;BME280;61705;46.228;24.812;2024-01-10T01:35:19;99046.91;;;-9.32;100.00
51261;BME280;61705;46.228;24.812;2024-01-10T01:37:49;99040.59;;;-9.39;100.00
51261;BME280;61705;46.228;24.812;2024-01-10T01:40:17;99046.75;;;-9.35;100.00
51261;BME280;61705;46.228;24.812;2024-01-10T01:42:46;99045.78;;;-9.37;100.00
51261;BME280;61705;46.228;24.812;2024-01-10T01:45:14;99036.00;;;-9.44;100.00
51261;BME280;61705;46.228;24.812;2024-01-10T01:47:41;99029.09;;;-9.62;100.00
51261;BME280;61705;46.228;24.812;2024-01-10T01:50:08;99040.47;;;-9.57;100.00
51261;BME280;61705;46.228;24.812;2024-01-10T01:52:35;99043.19;;;-9.53;100.00
51261;BME280;61705;46.228;24.812;2024-01-10T01:55:03;99035.34;;;-9.57;100.00
51261;BME280;61705;46.228;24.812;2024-01-10T01:57:29;99039.56;;;-9.57;100.00
51261;BME280;61705;46.228;24.812;2024-01-10T01:59:56;99038.22;;;-9.50;100.00
51261;BME280;61705;46.228;24.812;2024-01-10T02:02:24;99034.00;;;-9.50;100.00
51261;BME280;61705;46.228;24.812;2024-01-10T02:07:30;99030.88;;;-9.44;100.00
51261;BME280;61705;46.228;24.812;2024-01-10T02:09:56;99036.63;;;-9.48;100.00
51261;BME280;61705;46.228;24.812;2024-01-10T02:12:23;99038.22;;;-9.50;100.00
51261;BME280;61705;46.228;24.812;2024-01-10T02:14:50;99030.22;;;-9.57;100.00
51261;BME280;61705;46.228;24.812;2024-01-10T02:17:17;99033.84;;;-9.68;100.00
51261;BME280;61705;46.228;24.812;2024-01-10T02:19:44;99020.13;;;-9.85;100.00
51261;BME280;61705;46.228;24.812;2024-01-10T02:22:10;99021.88;;;-9.69;100.00
51261;BME280;61705;46.228;24.812;2024-01-10T02:24:37;99015.78;;;-9.71;100.00
51261;BME280;61705;46.228;24.812;2024-01-10T02:27:04;99017.03;;;-9.79;100.00
51261;BME280;61705;46.228;24.812;2024-01-10T02:29:31;99012.03;;;-9.77;100.00
51261;BME280;61705;46.228;24.812;2024-01-10T02:31:57;99013.22;;;-9.71;100.00
51261;BME280;61705;46.228;24.812;2024-01-10T02:34:24;99012.22;;;-9.89;100.00
51261;BME280;61705;46.228;24.812;2024-01-10T02:36:51;99016.97;;;-9.95;100.00
51261;BME280;61705;46.228;24.812;2024-01-10T02:39:17;99013.53;;;-9.96;100.00
51261;BME280;61705;46.228;24.812;2024-01-10T02:41:44;99012.03;;;-9.92;100.00
51261;BME280;61705;46.228;24.812;2024-01-10T02:44:11;99012.56;;;-9.83;100.00
51261;BME280;61705;46.228;24.812;2024-01-10T02:46:37;99016.50;;;-9.88;100.00
51261;BME280;61705;46.228;24.812;2024-01-10T02:49:04;99026.25;;;-9.97;100.00
51261;BME280;61705;46.228;24.812;2024-01-10T02:51:31;99012.47;;;-9.99;100.00
51261;BME280;61705;46.228;24.812;2024-01-10T02:53:57;99029.56;;;-9.98;100.00
51261;BME280;61705;46.228;24.812;2024-01-10T02:56:24;99026.13;;;-9.99;100.00
51261;BME280;61705;46.228;24.812;2024-01-10T02:58:51;99026.69;;;-10.05;100.00
51261;BME280;61705;46.228;24.812;2024-01-10T03:01:17;99024.28;;;-10.02;100.00
51261;BME280;61705;46.228;24.812;2024-01-10T03:03:44;99028.44;;;-10.04;100.00
51261;BME280;61705;46.228;24.812;2024-01-10T03:06:11;99026.97;;;-10.15;100.00
51261;BME280;61705;46.228;24.812;2024-01-10T03:08:37;99023.25;;;-10.20;100.00
51261;BME280;61705;46.228;24.812;2024-01-10T03:11:04;99021.13;;;-10.12;100.00
51261;BME280;61705;46.228;24.812;2024-01-10T03:13:30;99023.34;;;-10.04;100.00
51261;BME280;61705;46.228;24.812;2024-01-10T03:15:57;99017.78;;;-9.96;100.00
51261;BME280;61705;46.228;24.812;2024-01-10T03:18:24;99029.41;;;-10.02;100.00
51261;BME280;61705;46.228;24.812;2024-01-10T03:20:50;99025.09;;;-10.03;100.00
51261;BME280;61705;46.228;24.812;2024-01-10T03:23:17;99025.88;;;-10.04;100.00
51261;BME280;61705;46.228;24.812;2024-01-10T03:25:44;99026.78;;;-10.03;100.00
51261;BME280;61705;46.228;24.812;2024-01-10T03:28:17;99020.25;;;-10.13;100.00
51261;BME280;61705;46.228;24.812;2024-01-10T03:30:44;99025.00;;;-10.19;100.00
51261;BME280;61705;46.228;24.812;2024-01-10T03:33:11;99027.66;;;-10.17;100.00
51261;BME280;61705;46.228;24.812;2024-01-10T03:35:37;99028.72;;;-10.14;100.00
51261;BME280;61705;46.228;24.812;2024-01-10T03:38:04;99023.88;;;-10.24;100.00
51261;BME280;61705;46.228;24.812;2024-01-10T03:40:31;99020.81;;;-10.18;100.00
51261;BME280;61705;46.228;24.812;2024-01-10T03:42:59;99018.75;;;-10.09;100.00
51261;BME280;61705;46.228;24.812;2024-01-10T03:45:25;99019.91;;;-10.04;100.00
51261;BME280;61705;46.228;24.812;2024-01-10T03:47:53;99025.72;;;-10.07;100.00
51261;BME280;61705;46.228;24.812;2024-01-10T03:50:19;99020.50;;;-10.23;100.00
51261;BME280;61705;46.228;24.812;2024-01-10T03:52:46;99026.72;;;-10.34;100.00
51261;BME280;61705;46.228;24.812;2024-01-10T03:55:13;99029.91;;;-10.38;100.00
51261;BME280;61705;46.228;24.812;2024-01-10T03:57:40;99035.69;;;-10.41;100.00
51261;BME280;61705;46.228;24.812;2024-01-10T04:00:06;99034.19;;;-10.52;100.00
51261;BME280;61705;46.228;24.812;2024-01-10T04:02:33;99035.00;;;-10.38;100.00
51261;BME280;61705;46.228;24.812;2024-01-10T04:05:00;99038.81;;;-10.32;100.00
51261;BME280;61705;46.228;24.812;2024-01-10T04:07:27;99043.28;;;-10.42;100.00
51261;BME280;61705;46.228;24.812;2024-01-10T04:09:54;99044.59;;;-10.34;100.00
51261;BME280;61705;46.228;24.812;2024-01-10T04:12:21;99046.09;;;-10.38;100.00
51261;BME280;61705;46.228;24.812;2024-01-10T04:14:47;99045.91;;;-10.41;100.00
51261;BME280;61705;46.228;24.812;2024-01-10T04:17:17;99041.31;;;-10.46;100.00
51261;BME280;61705;46.228;24.812;2024-01-10T04:19:47;99041.25;;;-10.48;100.00
51261;BME280;61705;46.228;24.812;2024-01-10T04:22:14;99048.97;;;-10.61;100.00
51261;BME280;61705;46.228;24.812;2024-01-10T04:24:40;99041.94;;;-10.51;100.00
51261;BME280;61705;46.228;24.812;2024-01-10T04:27:07;99042.75;;;-10.52;100.00
51261;BME280;61705;46.228;24.812;2024-01-10T04:29:36;99041.56;;;-10.57;100.00
51261;BME280;61705;46.228;24.812;2024-01-10T04:32:02;99047.84;;;-10.66;100.00
51261;BME280;61705;46.228;24.812;2024-01-10T04:34:30;99042.53;;;-10.69;100.00
51261;BME280;61705;46.228;24.812;2024-01-10T04:36:56;99044.81;;;-10.74;100.00
51261;BME280;61705;46.228;24.812;2024-01-10T04:39:23;99040.69;;;-10.72;100.00
51261;BME280;61705;46.228;24.812;2024-01-10T04:41:49;99045.97;;;-10.69;100.00
51261;BME280;61705;46.228;24.812;2024-01-10T04:44:16;99041.22;;;-10.63;100.00
51261;BME280;61705;46.228;24.812;2024-01-10T04:46:43;99048.91;;;-10.63;100.00
51261;BME280;61705;46.228;24.812;2024-01-10T04:49:09;99049.84;;;-10.61;100.00
51261;BME280;61705;46.228;24.812;2024-01-10T04:51:36;99049.72;;;-10.49;100.00
51261;BME280;61705;46.228;24.812;2024-01-10T04:54:03;99047.22;;;-10.47;100.00
51261;BME280;61705;46.228;24.812;2024-01-10T04:56:30;99053.03;;;-10.50;100.00
51261;BME280;61705;46.228;24.812;2024-01-10T04:58:56;99054.81;;;-10.49;100.00
51261;BME280;61705;46.228;24.812;2024-01-10T05:01:23;99054.72;;;-10.51;100.00
51261;BME280;61705;46.228;24.812;2024-01-10T05:03:50;99066.78;;;-10.48;100.00
51261;BME280;61705;46.228;24.812;2024-01-10T05:06:17;99061.06;;;-10.59;100.00
51261;BME280;61705;46.228;24.812;2024-01-10T05:08:43;99066.84;;;-10.61;100.00
51261;BME280;61705;46.228;24.812;2024-01-10T05:11:10;99066.03;;;-10.60;100.00
51261;BME280;61705;46.228;24.812;2024-01-10T05:13:37;99070.56;;;-10.56;100.00
51261;BME280;61705;46.228;24.812;2024-01-10T05:16:05;99066.16;;;-10.59;100.00
51261;BME280;61705;46.228;24.812;2024-01-10T05:18:32;99063.59;;;-10.59;100.00
51261;BME280;61705;46.228;24.812;2024-01-10T05:20:59;99066.78;;;-10.48;100.00
51261;BME280;61705;46.228;24.812;2024-01-10T05:23:26;99064.56;;;-10.57;100.00
51261;BME280;61705;46.228;24.812;2024-01-10T05:25:53;99063.78;;;-10.56;100.00
51261;BME280;61705;46.228;24.812;2024-01-10T05:28:19;99060.44;;;-10.55;100.00
51261;BME280;61705;46.228;24.812;2024-01-10T05:30:46;99064.38;;;-10.60;100.00
51261;BME280;61705;46.228;24.812;2024-01-10T05:33:13;99071.16;;;-10.60;100.00
51261;BME280;61705;46.228;24.812;2024-01-10T05:35:39;99064.66;;;-10.55;100.00
51261;BME280;61705;46.228;24.812;2024-01-10T05:38:06;99070.56;;;-10.56;100.00
51261;BME280;61705;46.228;24.812;2024-01-10T05:40:33;99069.47;;;-10.60;100.00
51261;BME280;61705;46.228;24.812;2024-01-10T05:43:00;99062.81;;;-10.58;100.00
51261;BME280;61705;46.228;24.812;2024-01-10T05:45:27;99068.72;;;-10.59;100.00
51261;BME280;61705;46.228;24.812;2024-01-10T05:47:54;99062.47;;;-10.77;100.00
51261;BME280;61705;46.228;24.812;2024-01-10T05:50:21;99070.75;;;-10.81;100.00
51261;BME280;61705;46.228;24.812;2024-01-10T05:52:48;99073.06;;;-10.71;100.00
51261;BME280;61705;46.228;24.812;2024-01-10T05:55:15;99067.72;;;-10.61;100.00
51261;BME280;61705;46.228;24.812;2024-01-10T05:57:42;99067.47;;;-10.65;100.00
51261;BME280;61705;46.228;24.812;2024-01-10T06:00:08;99070.56;;;-10.56;100.00
51261;BME280;61705;46.228;24.812;2024-01-10T06:02:36;99077.06;;;-10.61;100.00
51261;BME280;61705;46.228;24.812;2024-01-10T06:07:32;99073.53;;;-10.63;100.00
51261;BME280;61705;46.228;24.812;2024-01-10T06:09:59;99073.44;;;-10.65;100.00
51261;BME280;61705;46.228;24.812;2024-01-10T06:12:26;99073.38;;;-10.66;100.00
51261;BME280;61705;46.228;24.812;2024-01-10T06:14:52;99075.00;;;-10.67;100.00
51261;BME280;61705;46.228;24.812;2024-01-10T06:17:19;99086.66;;;-10.57;100.00
51261;BME280;61705;46.228;24.812;2024-01-10T06:19:45;99085.16;;;-10.54;100.00
51261;BME280;61705;46.228;24.812;2024-01-10T06:22:12;99080.91;;;-10.68;100.00
51261;BME280;61705;46.228;24.812;2024-01-10T06:24:39;99084.47;;;-10.66;100.00
51261;BME280;61705;46.228;24.812;2024-01-10T06:27:07;99087.97;;;-10.64;100.00
51261;BME280;61705;46.228;24.812;2024-01-10T06:29:34;99095.81;;;-10.61;100.00
51261;BME280;61705;46.228;24.812;2024-01-10T06:32:01;99093.81;;;-10.52;100.00
51261;BME280;61705;46.228;24.812;2024-01-10T06:34:27;99099.19;;;-10.47;100.00
51261;BME280;61705;46.228;24.812;2024-01-10T06:36:54;99100.00;;;-10.48;100.00
51261;BME280;61705;46.228;24.812;2024-01-10T06:39:21;99094.69;;;-10.51;100.00
51261;BME280;61705;46.228;24.812;2024-01-10T06:41:48;99095.69;;;-10.49;100.00
51261;BME280;61705;46.228;24.812;2024-01-10T06:44:15;99090.66;;;-10.47;100.00
51261;BME280;61705;46.228;24.812;2024-01-10T06:46:44;99098.56;;;-10.43;100.00
51261;BME280;61705;46.228;24.812;2024-01-10T06:49:11;99093.91;;;-10.50;100.00
51261;BME280;61705;46.228;24.812;2024-01-10T06:51:40;99099.63;;;-10.39;100.00
51261;BME280;61705;46.228;24.812;2024-01-10T06:54:07;99104.44;;;-10.31;100.00
51261;BME280;61705;46.228;24.812;2024-01-10T06:56:35;99091.09;;;-10.25;100.00
51261;BME280;61705;46.228;24.812;2024-01-10T06:59:03;99095.41;;;-10.09;100.00
51261;BME280;61705;46.228;24.812;2024-01-10T07:01:29;99092.78;;;-9.96;100.00
51261;BME280;61705;46.228;24.812;2024-01-10T07:03:56;99095.16;;;-9.99;100.00
51261;BME280;61705;46.228;24.812;2024-01-10T07:06:23;99091.03;;;-9.97;100.00
51261;BME280;61705;46.228;24.812;2024-01-10T07:08:52;99100.81;;;-10.05;100.00
51261;BME280;61705;46.228;24.812;2024-01-10T07:11:19;99097.03;;;-10.11;100.00
51261;BME280;61705;46.228;24.812;2024-01-10T07:13:46;99097.03;;;-9.96;100.00
51261;BME280;61705;46.228;24.812;2024-01-10T07:16:13;99092.63;;;-9.84;100.00
51261;BME280;61705;46.228;24.812;2024-01-10T07:18:43;99101.94;;;-9.85;100.00
51261;BME280;61705;46.228;24.812;2024-01-10T07:21:09;99089.78;;;-9.74;100.00
51261;BME280;61705;46.228;24.812;2024-01-10T07:23:37;99103.38;;;-9.60;100.00
51261;BME280;61705;46.228;24.812;2024-01-10T07:26:09;99093.72;;;-9.64;100.00
51261;BME280;61705;46.228;24.812;2024-01-10T07:28:36;99087.38;;;-9.56;100.00
51261;BME280;61705;46.228;24.812;2024-01-10T07:31:04;99083.66;;;-9.46;100.00
51261;BME280;61705;46.228;24.812;2024-01-10T07:33:32;99082.69;;;-9.48;100.00
51261;BME280;61705;46.228;24.812;2024-01-10T07:36:00;99096.03;;;-9.69;100.00
51261;BME280;61705;46.228;24.812;2024-01-10T07:38:29;99093.66;;;-9.66;100.00
51261;BME280;61705;46.228;24.812;2024-01-10T07:40:56;99088.47;;;-9.67;100.00
51261;BME280;61705;46.228;24.812;2024-01-10T07:43:25;99096.63;;;-9.58;100.00
51261;BME280;61705;46.228;24.812;2024-01-10T07:45:53;99089.78;;;-9.59;100.00
51261;BME280;61705;46.228;24.812;2024-01-10T07:48:20;99083.66;;;-9.46;100.00
51261;BME280;61705;46.228;24.812;2024-01-10T07:50:46;99088.31;;;-9.39;100.00
51261;BME280;61705;46.228;24.812;2024-01-10T07:53:13;99089.72;;;-9.29;100.00
51261;BME280;61705;46.228;24.812;2024-01-10T07:55:40;99096.75;;;-9.25;100.00
51261;BME280;61705;46.228;24.812;2024-01-10T07:58:06;99086.88;;;-9.34;100.00
51261;BME280;61705;46.228;24.812;2024-01-10T08:00:33;99087.00;;;-9.16;100.00
51261;BME280;61705;46.228;24.812;2024-01-10T08:03:00;99089.50;;;-9.18;100.00
51261;BME280;61705;46.228;24.812;2024-01-10T08:05:27;99086.41;;;-9.12;100.00
51261;BME280;61705;46.228;24.812;2024-01-10T08:07:54;99084.63;;;-9.13;100.00
51261;BME280;61705;46.228;24.812;2024-01-10T08:10:22;99085.69;;;-8.93;100.00
51261;BME280;61705;46.228;24.812;2024-01-10T08:12:49;99082.66;;;-8.86;100.00
51261;BME280;61705;46.228;24.812;2024-01-10T08:15:16;99085.88;;;-8.90;100.00
51261;BME280;61705;46.228;24.812;2024-01-10T08:17:42;99079.47;;;-8.82;100.00
51261;BME280;61705;46.228;24.812;2024-01-10T08:20:09;99085.31;;;-8.68;100.00
51261;BME280;61705;46.228;24.812;2024-01-10T08:22:37;99077.31;;;-8.74;100.00
51261;BME280;61705;46.228;24.812;2024-01-10T08:25:05;99082.75;;;-8.68;100.00
51261;BME280;61705;46.228;24.812;2024-01-10T08:27:31;99081.88;;;-8.69;100.00
51261;BME280;61705;46.228;24.812;2024-01-10T08:29:58;99092.13;;;-8.52;100.00
51261;BME280;61705;46.228;24.812;2024-01-10T08:32:24;99090.28;;;-8.39;100.00
51261;BME280;61705;46.228;24.812;2024-01-10T08:34:51;99085.09;;;-8.40;100.00
51261;BME280;61705;46.228;24.812;2024-01-10T08:37:18;99085.09;;;-8.22;100.00
51261;BME280;61705;46.228;24.812;2024-01-10T08:39:44;99076.59;;;-8.21;100.00
51261;BME280;61705;46.228;24.812;2024-01-10T08:42:14;99080.03;;;-8.21;100.00
51261;BME280;61705;46.228;24.812;2024-01-10T08:44:40;99073.00;;;-8.25;100.00
51261;BME280;61705;46.228;24.812;2024-01-10T08:47:07;99075.72;;;-8.22;100.00
51261;BME280;61705;46.228;24.812;2024-01-10T08:49:34;99071.44;;;-8.05;100.00
51261;BME280;61705;46.228;24.812;2024-01-10T08:52:00;99059.97;;;-7.95;100.00
51261;BME280;61705;46.228;24.812;2024-01-10T08:54:27;99072.34;;;-7.87;100.00
51261;BME280;61705;46.228;24.812;2024-01-10T08:56:54;99072.22;;;-7.90;100.00
51261;BME280;61705;46.228;24.812;2024-01-10T08:59:21;99065.13;;;-7.77;100.00
51261;BME280;61705;46.228;24.812;2024-01-10T09:01:47;99063.88;;;-7.68;100.00
51261;BME280;61705;46.228;24.812;2024-01-10T09:04:15;99057.28;;;-7.63;100.00
51261;BME280;61705;46.228;24.812;2024-01-10T09:06:42;99054.22;;;-7.55;100.00
51261;BME280;61705;46.228;24.812;2024-01-10T09:09:08;99048.94;;;-7.41;100.00
51261;BME280;61705;46.228;24.812;2024-01-10T09:11:37;99043.13;;;-7.54;100.00
51261;BME280;61705;46.228;24.812;2024-01-10T09:14:07;99040.94;;;-7.47;100.00
51261;BME280;61705;46.228;24.812;2024-01-10T09:16:35;99036.38;;;-7.34;100.00
51261;BME280;61705;46.228;24.812;2024-01-10T09:19:02;99036.88;;;-7.24;100.00
51261;BME280;61705;46.228;24.812;2024-01-10T09:21:31;99036.94;;;-7.22;100.00
51261;BME280;61705;46.228;24.812;2024-01-10T09:23:58;99038.97;;;-7.15;100.00
51261;BME280;61705;46.228;24.812;2024-01-10T09:26:31;99042.69;;;-7.08;100.00
51261;BME280;61705;46.228;24.812;2024-01-10T09:28:58;99033.28;;;-6.90;100.00
51261;BME280;61705;46.228;24.812;2024-01-10T09:31:25;99031.88;;;-6.83;100.00
51261;BME280;61705;46.228;24.812;2024-01-10T09:33:52;99031.56;;;-6.70;100.00
51261;BME280;61705;46.228;24.812;2024-01-10T09:36:18;99025.00;;;-6.63;100.00
51261;BME280;61705;46.228;24.812;2024-01-10T09:38:45;99026.31;;;-6.54;100.00
51261;BME280;61705;46.228;24.812;2024-01-10T09:41:11;99026.13;;;-6.58;100.00
51261;BME280;61705;46.228;24.812;2024-01-10T09:43:39;99018.69;;;-6.52;100.00
51261;BME280;61705;46.228;24.812;2024-01-10T09:46:06;99006.59;;;-6.53;100.00
51261;BME280;61705;46.228;24.812;2024-01-10T09:48:33;99006.97;;;-6.46;100.00
51261;BME280;61705;46.228;24.812;2024-01-10T09:51:00;99012.63;;;-6.33;100.00
51261;BME280;61705;46.228;24.812;2024-01-10T09:53:27;99006.13;;;-6.25;100.00
51261;BME280;61705;46.228;24.812;2024-01-10T09:55:56;99004.13;;;-6.11;100.00
51261;BME280;61705;46.228;24.812;2024-01-10T09:58:23;98999.63;;;-6.15;100.00
51261;BME280;61705;46.228;24.812;2024-01-10T10:00:53;98996.09;;;-5.98;100.00
51261;BME280;61705;46.228;24.812;2024-01-10T10:03:19;98998.84;;;-5.93;100.00
51261;BME280;61705;46.228;24.812;2024-01-10T10:05:47;98993.91;;;-5.87;100.00
51261;BME280;61705;46.228;24.812;2024-01-10T10:08:14;98985.66;;;-5.79;100.00
51261;BME280;61705;46.228;24.812;2024-01-10T10:10:43;98989.44;;;-5.70;100.00
51261;BME280;61705;46.228;24.812;2024-01-10T10:13:23;98989.78;;;-5.61;100.00
51261;BME280;61705;46.228;24.812;2024-01-10T10:16:00;98985.88;;;-5.52;100.00
51261;BME280;61705;46.228;24.812;2024-01-10T10:18:30;98979.03;;;-5.51;100.00
51261;BME280;61705;46.228;24.812;2024-01-10T10:21:08;98976.69;;;-5.45;100.00
51261;BME280;61705;46.228;24.812;2024-01-10T10:23:36;98970.03;;;-5.40;100.00
51261;BME280;61705;46.228;24.812;2024-01-10T10:26:15;98971.97;;;-5.34;100.00
51261;BME280;61705;46.228;24.812;2024-01-10T10:28:50;98962.84;;;-5.26;100.00
51261;BME280;61705;46.228;24.812;2024-01-10T10:31:18;98962.38;;;-5.16;100.00
51261;BME280;61705;46.228;24.812;2024-01-10T10:33:46;98955.63;;;-5.12;100.00
51261;BME280;61705;46.228;24.812;2024-01-10T10:36:14;98962.69;;;-5.07;100.00
51261;BME280;61705;46.228;24.812;2024-01-10T10:38:41;98958.72;;;-4.98;100.00
51261;BME280;61705;46.228;24.812;2024-01-10T10:41:07;98954.75;;;-4.89;100.00
51261;BME280;61705;46.228;24.812;2024-01-10T10:43:38;98944.53;;;-4.86;100.00
51261;BME280;61705;46.228;24.812;2024-01-10T10:46:06;98944.72;;;-4.81;100.00
51261;BME280;61705;46.228;24.812;2024-01-10T10:48:33;98942.78;;;-4.87;100.00
51261;BME280;61705;46.228;24.812;2024-01-10T10:53:36;98935.03;;;-4.63;100.00
51261;BME280;61705;46.228;24.812;2024-01-10T10:56:04;98932.72;;;-4.55;100.00
51261;BME280;61705;46.228;24.812;2024-01-10T10:58:32;98927.13;;;-4.43;100.00
51261;BME280;61705;46.228;24.812;2024-01-10T11:01:00;98928.59;;;-4.24;97.39
51261;BME280;61705;46.228;24.812;2024-01-10T11:03:28;98919.22;;;-4.22;93.54
51261;BME280;61705;46.228;24.812;2024-01-10T11:05:57;98919.44;;;-4.15;91.11
51261;BME280;61705;46.228;24.812;2024-01-10T11:08:27;98906.84;;;-4.06;87.46
51261;BME280;61705;46.228;24.812;2024-01-10T11:10:54;98908.06;;;-3.94;85.95
51261;BME280;61705;46.228;24.812;2024-01-10T11:16:15;98912.47;;;-3.92;92.45
51261;BME280;61705;46.228;24.812;2024-01-10T11:24:08;98893.88;;;-3.80;86.30
51261;BME280;61705;46.228;24.812;2024-01-10T11:26:39;98892.63;;;-3.66;89.83
51261;BME280;61705;46.228;24.812;2024-01-10T11:29:05;98896.88;;;-3.66;88.99
51261;BME280;61705;46.228;24.812;2024-01-10T11:31:32;98888.56;;;-3.56;88.19
51261;BME280;61705;46.228;24.812;2024-01-10T11:34:00;98892.28;;;-3.48;86.29
51261;BME280;61705;46.228;24.812;2024-01-10T11:36:28;98886.75;;;-3.31;85.19
51261;BME280;61705;46.228;24.812;2024-01-10T11:38:59;98879.59;;;-3.39;85.13
51261;BME280;61705;46.228;24.812;2024-01-10T11:41:31;98887.34;;;-3.40;88.35
51261;BME280;61705;46.228;24.812;2024-01-10T11:46:37;98877.28;;;-3.31;83.25
51261;BME280;61705;46.228;24.812;2024-01-10T11:49:11;98876.59;;;-3.24;84.27
51261;BME280;61705;46.228;24.812;2024-01-10T11:51:42;98876.03;;;-3.14;84.59
51261;BME280;61705;46.228;24.812;2024-01-10T11:54:21;98869.72;;;-3.23;78.40
51261;BME280;61705;46.228;24.812;2024-01-10T11:57:00;98862.97;;;-3.18;82.38
51261;BME280;61705;46.228;24.812;2024-01-10T11:59:27;98858.03;;;-3.11;78.81
51261;BME280;61705;46.228;24.812;2024-01-10T12:01:57;98854.72;;;-3.05;78.96
51261;BME280;61705;46.228;24.812;2024-01-10T12:04:23;98864.16;;;-3.07;77.11
51261;BME280;61705;46.228;24.812;2024-01-10T12:07:07;98854.63;;;-3.08;77.20
51261;BME280;61705;46.228;24.812;2024-01-10T12:09:34;98859.88;;;-3.05;78.12
51261;BME280;61705;46.228;24.812;2024-01-10T12:12:03;98853.22;;;-2.97;77.77
51261;BME280;61705;46.228;24.812;2024-01-10T12:14:30;98854.88;;;-2.99;77.20
51261;BME280;61705;46.228;24.812;2024-01-10T12:16:57;98855.00;;;-2.94;76.81
51261;BME280;61705;46.228;24.812;2024-01-10T12:19:24;98858.63;;;-2.88;77.17
51261;BME280;61705;46.228;24.812;2024-01-10T12:21:50;98852.06;;;-2.75;76.79
51261;BME280;61705;46.228;24.812;2024-01-10T12:24:19;98853.00;;;-2.73;77.12
51261;BME280;61705;46.228;24.812;2024-01-10T12:26:46;98853.16;;;-2.67;77.19
51261;BME280;61705;46.228;24.812;2024-01-10T12:29:16;98850.63;;;-2.64;76.88
51261;BME280;61705;46.228;24.812;2024-01-10T12:31:44;98848.72;;;-2.71;76.87
51261;BME280;61705;46.228;24.812;2024-01-10T12:34:12;98846.88;;;-2.76;76.42
51261;BME280;61705;46.228;24.812;2024-01-10T12:36:38;98844.31;;;-2.75;76.30
51261;BME280;61705;46.228;24.812;2024-01-10T12:39:05;98841.84;;;-2.70;75.86
51261;BME280;61705;46.228;24.812;2024-01-10T12:41:33;98839.66;;;-2.55;75.82
51261;BME280;61705;46.228;24.812;2024-01-10T12:44:03;98845.59;;;-2.59;75.86
51261;BME280;61705;46.228;24.812;2024-01-10T12:46:31;98837.16;;;-2.50;76.02
51261;BME280;61705;46.228;24.812;2024-01-10T12:51:27;98829.50;;;-2.47;74.38
51261;BME280;61705;46.228;24.812;2024-01-10T12:54:10;98834.56;;;-2.52;74.06
51261;BME280;61705;46.228;24.812;2024-01-10T12:56:36;98837.78;;;-2.60;73.98
51261;BME280;61705;46.228;24.812;2024-01-10T12:59:03;98841.91;;;-2.69;74.83
51261;BME280;61705;46.228;24.812;2024-01-10T13:01:30;98839.13;;;-2.76;75.42